EWG9626 EDDL-LGZA
Flight info
| Callsign | EWG9626 |
|---|---|
| Flight time | 2h 26m |
| Altitude | 35000 |
| Route | DODEN7Z/05R DODEN Y853 BOMBI DCT DETEV DCT DINKU DCT BESNI DCT LATLO DCT OBEDI/N0453F370 DCT SABAD DCT NERRA DCT RODON DCT PITAS/N0451F330 UN732 KRK UT321 ASTUS |
| Aircraft | A320/M-SDE3FGHIRWY/LB1 |
Departure
| Time | 2026-04-30 12:22 |
|---|---|
| Airport | Düsseldorf Airport (EDDL) |
Arrival
| Time | 2026-04-30 14:49 |
|---|---|
| Airport | Zakynthos International Airport Dionysios Solomos (LGZA) |
| Time | Latitude | Longitude | Altitude | Speed | Heading |
|---|---|---|---|---|---|
| 2026-04-30 11:51 | 51.27993 | 6.76176 | 137 ft | 0 kts | 118° |
| 2026-04-30 12:13 | 51.27994 | 6.76173 | 137 ft | 3 kts | 118° |
| 2026-04-30 12:13 | 51.28007 | 6.76136 | 137 ft | 4 kts | 121° |
| 2026-04-30 12:13 | 51.28022 | 6.76100 | 137 ft | 4 kts | 127° |
| 2026-04-30 12:13 | 51.28039 | 6.76068 | 137 ft | 4 kts | 143° |
| 2026-04-30 12:14 | 51.28060 | 6.76054 | 137 ft | 1 kts | 190° |
| 2026-04-30 12:14 | 51.28065 | 6.76055 | 137 ft | 0 kts | 190° |
| 2026-04-30 12:18 | 51.28057 | 6.76053 | 137 ft | 3 kts | 190° |
| 2026-04-30 12:18 | 51.28021 | 6.76046 | 137 ft | 7 kts | 183° |
| 2026-04-30 12:19 | 51.27960 | 6.76048 | 137 ft | 10 kts | 178° |
| 2026-04-30 12:19 | 51.27885 | 6.76045 | 137 ft | 12 kts | 188° |
| 2026-04-30 12:19 | 51.27843 | 6.75954 | 137 ft | 11 kts | 268° |
| 2026-04-30 12:19 | 51.27851 | 6.75825 | 137 ft | 13 kts | 281° |
| 2026-04-30 12:20 | 51.27862 | 6.75688 | 137 ft | 12 kts | 273° |
| 2026-04-30 12:20 | 51.27890 | 6.75604 | 137 ft | 8 kts | 316° |
| 2026-04-30 12:20 | 51.27892 | 6.75527 | 136 ft | 9 kts | 237° |
| 2026-04-30 12:20 | 51.27852 | 6.75440 | 136 ft | 11 kts | 233° |
| 2026-04-30 12:21 | 51.27856 | 6.75330 | 136 ft | 12 kts | 323° |
| 2026-04-30 12:21 | 51.27936 | 6.75273 | 131 ft | 10 kts | 335° |
| 2026-04-30 12:21 | 51.27979 | 6.75258 | 129 ft | 6 kts | 20° |
| 2026-04-30 12:21 | 51.28038 | 6.75367 | 129 ft | 26 kts | 52° |
| 2026-04-30 12:22 | 51.28287 | 6.75888 | 133 ft | 89 kts | 52° |
| 2026-04-30 12:22 | 51.28770 | 6.76899 | 136 ft | 138 kts | 52° |
| 2026-04-30 12:22 | 51.29390 | 6.78186 | 545 ft | 143 kts | 53° |
| 2026-04-30 12:22 | 51.29978 | 6.79434 | 1305 ft | 139 kts | 58° |
| 2026-04-30 12:23 | 51.30565 | 6.80690 | 1806 ft | 145 kts | 57° |
| 2026-04-30 12:23 | 51.31213 | 6.82083 | 2188 ft | 167 kts | 58° |
| 2026-04-30 12:23 | 51.31690 | 6.83108 | 2509 ft | 181 kts | 57° |
| 2026-04-30 12:23 | 51.32487 | 6.84800 | 2821 ft | 201 kts | 57° |
| 2026-04-30 12:24 | 51.33368 | 6.86665 | 3126 ft | 222 kts | 56° |
| 2026-04-30 12:24 | 51.34322 | 6.88764 | 3538 ft | 243 kts | 58° |
| 2026-04-30 12:24 | 51.35162 | 6.91137 | 4252 ft | 247 kts | 78° |
| 2026-04-30 12:24 | 51.35223 | 6.93859 | 4900 ft | 245 kts | 100° |
| 2026-04-30 12:25 | 51.34959 | 6.96547 | 5746 ft | 244 kts | 101° |
| 2026-04-30 12:25 | 51.34677 | 6.99235 | 6626 ft | 247 kts | 101° |
| 2026-04-30 12:25 | 51.34389 | 7.01969 | 7410 ft | 251 kts | 101° |
| 2026-04-30 12:25 | 51.34098 | 7.04737 | 8190 ft | 255 kts | 100° |
| 2026-04-30 12:26 | 51.33805 | 7.07551 | 9004 ft | 258 kts | 99° |
| 2026-04-30 12:26 | 51.33512 | 7.10413 | 9800 ft | 263 kts | 99° |
| 2026-04-30 12:26 | 51.33216 | 7.13317 | 10554 ft | 267 kts | 100° |
| 2026-04-30 12:26 | 51.32698 | 7.16262 | 10889 ft | 288 kts | 112° |
| 2026-04-30 12:27 | 51.31673 | 7.19166 | 11037 ft | 312 kts | 124° |
| 2026-04-30 12:27 | 51.30196 | 7.21825 | 11245 ft | 334 kts | 134° |
| 2026-04-30 12:27 | 51.28500 | 7.24436 | 11758 ft | 342 kts | 133° |
| 2026-04-30 12:27 | 51.26789 | 7.27116 | 12378 ft | 346 kts | 133° |
| 2026-04-30 12:28 | 51.25069 | 7.29839 | 12991 ft | 351 kts | 132° |
| 2026-04-30 12:28 | 51.23330 | 7.32604 | 13605 ft | 355 kts | 132° |
| 2026-04-30 12:28 | 51.21573 | 7.35393 | 14219 ft | 359 kts | 133° |
| 2026-04-30 12:28 | 51.19765 | 7.38247 | 14785 ft | 363 kts | 132° |
| 2026-04-30 12:29 | 51.17988 | 7.41044 | 15329 ft | 366 kts | 133° |
| 2026-04-30 12:29 | 51.16169 | 7.43905 | 15883 ft | 369 kts | 133° |
| 2026-04-30 12:29 | 51.14328 | 7.46779 | 16432 ft | 372 kts | 133° |
| 2026-04-30 12:29 | 51.12458 | 7.49657 | 16986 ft | 375 kts | 133° |
| 2026-04-30 12:30 | 51.10563 | 7.52545 | 17557 ft | 379 kts | 133° |
| 2026-04-30 12:30 | 51.08650 | 7.55447 | 18114 ft | 383 kts | 133° |
| 2026-04-30 12:30 | 51.06713 | 7.58382 | 18690 ft | 386 kts | 133° |
| 2026-04-30 12:30 | 51.04760 | 7.61341 | 19197 ft | 389 kts | 133° |
| 2026-04-30 12:31 | 51.02795 | 7.64328 | 19717 ft | 393 kts | 133° |
| 2026-04-30 12:31 | 51.00811 | 7.67342 | 20238 ft | 396 kts | 133° |
| 2026-04-30 12:31 | 50.98811 | 7.70382 | 20737 ft | 400 kts | 133° |
| 2026-04-30 12:31 | 50.96746 | 7.73369 | 21208 ft | 405 kts | 138° |
| 2026-04-30 12:32 | 50.94396 | 7.75895 | 21672 ft | 411 kts | 145° |
| 2026-04-30 12:32 | 50.91958 | 7.78288 | 22113 ft | 414 kts | 145° |
| 2026-04-30 12:32 | 50.89500 | 7.80704 | 22552 ft | 417 kts | 144° |
| 2026-04-30 12:32 | 50.87028 | 7.83135 | 22969 ft | 420 kts | 144° |
| 2026-04-30 12:33 | 50.84539 | 7.85583 | 23389 ft | 423 kts | 144° |
| 2026-04-30 12:33 | 50.82068 | 7.88014 | 23784 ft | 426 kts | 144° |
| 2026-04-30 12:33 | 50.79545 | 7.90490 | 24141 ft | 428 kts | 144° |
| 2026-04-30 12:33 | 50.77005 | 7.92974 | 24479 ft | 430 kts | 144° |
| 2026-04-30 12:34 | 50.74453 | 7.95465 | 24815 ft | 432 kts | 144° |
| 2026-04-30 12:34 | 50.71887 | 7.97970 | 25145 ft | 434 kts | 144° |
| 2026-04-30 12:34 | 50.69313 | 8.00482 | 25480 ft | 436 kts | 144° |
| 2026-04-30 12:34 | 50.66726 | 8.03003 | 25814 ft | 438 kts | 144° |
| 2026-04-30 12:35 | 50.64121 | 8.05538 | 26150 ft | 440 kts | 144° |
| 2026-04-30 12:35 | 50.61517 | 8.08071 | 26477 ft | 442 kts | 144° |
| 2026-04-30 12:35 | 50.59030 | 8.10885 | 26796 ft | 439 kts | 136° |
| 2026-04-30 12:35 | 50.56682 | 8.13979 | 27114 ft | 441 kts | 136° |
| 2026-04-30 12:36 | 50.54326 | 8.17083 | 27459 ft | 442 kts | 136° |
| 2026-04-30 12:36 | 50.51967 | 8.20182 | 27933 ft | 441 kts | 136° |
| 2026-04-30 12:36 | 50.49617 | 8.23256 | 28397 ft | 439 kts | 136° |
| 2026-04-30 12:36 | 50.47263 | 8.26322 | 28874 ft | 438 kts | 136° |
| 2026-04-30 12:37 | 50.44920 | 8.29368 | 29357 ft | 437 kts | 136° |
| 2026-04-30 12:37 | 50.42583 | 8.32407 | 29820 ft | 436 kts | 136° |
| 2026-04-30 12:37 | 50.40255 | 8.35435 | 30293 ft | 435 kts | 136° |
| 2026-04-30 12:37 | 50.37928 | 8.38463 | 30730 ft | 434 kts | 136° |
| 2026-04-30 12:38 | 50.36395 | 8.40460 | 30994 ft | 433 kts | 136° |
| 2026-04-30 12:38 | 50.34676 | 8.42701 | 31401 ft | 428 kts | 135° |
| 2026-04-30 12:38 | 50.32348 | 8.45729 | 31717 ft | 430 kts | 136° |
| 2026-04-30 12:39 | 50.30074 | 8.48681 | 32061 ft | 431 kts | 136° |
| 2026-04-30 12:39 | 50.27762 | 8.51671 | 32432 ft | 431 kts | 136° |
| 2026-04-30 12:39 | 50.25451 | 8.54650 | 32830 ft | 430 kts | 136° |
| 2026-04-30 12:39 | 50.23140 | 8.57624 | 33229 ft | 430 kts | 136° |
| 2026-04-30 12:40 | 50.20833 | 8.60591 | 33627 ft | 429 kts | 136° |
| 2026-04-30 12:40 | 50.18530 | 8.63551 | 34024 ft | 429 kts | 136° |
| 2026-04-30 12:40 | 50.16229 | 8.66506 | 34404 ft | 428 kts | 136° |
| 2026-04-30 12:40 | 50.13928 | 8.69457 | 34713 ft | 428 kts | 136° |
| 2026-04-30 12:41 | 50.11621 | 8.72408 | 34998 ft | 428 kts | 136° |
| 2026-04-30 12:41 | 50.09317 | 8.75348 | 35279 ft | 429 kts | 136° |
| 2026-04-30 12:41 | 50.05253 | 8.82065 | 35389 ft | 428 kts | 119° |
| 2026-04-30 12:42 | 50.02507 | 8.90276 | 35388 ft | 430 kts | 111° |
| 2026-04-30 12:42 | 49.99902 | 8.98670 | 35388 ft | 431 kts | 111° |
| 2026-04-30 12:43 | 49.97277 | 9.06995 | 35389 ft | 432 kts | 111° |
| 2026-04-30 12:43 | 49.94642 | 9.15377 | 35394 ft | 432 kts | 111° |
| 2026-04-30 12:44 | 49.92009 | 9.23771 | 35399 ft | 433 kts | 111° |
| 2026-04-30 12:44 | 49.89367 | 9.32160 | 35402 ft | 433 kts | 111° |
| 2026-04-30 12:45 | 49.86715 | 9.40530 | 35396 ft | 433 kts | 111° |
| 2026-04-30 12:45 | 49.84050 | 9.48897 | 35403 ft | 433 kts | 111° |
| 2026-04-30 12:46 | 49.80635 | 9.56661 | 35402 ft | 444 kts | 129° |
| 2026-04-30 12:46 | 49.76133 | 9.63252 | 35408 ft | 446 kts | 132° |
| 2026-04-30 12:47 | 49.71599 | 9.69804 | 35399 ft | 446 kts | 131° |
| 2026-04-30 12:47 | 49.67064 | 9.76354 | 35392 ft | 446 kts | 131° |
| 2026-04-30 12:48 | 49.62524 | 9.82904 | 35398 ft | 447 kts | 131° |
| 2026-04-30 12:48 | 49.57983 | 9.89445 | 35397 ft | 447 kts | 131° |
| 2026-04-30 12:49 | 49.53458 | 9.95929 | 35395 ft | 447 kts | 131° |
| 2026-04-30 12:49 | 49.48895 | 10.02443 | 35398 ft | 448 kts | 131° |
| 2026-04-30 12:50 | 49.44330 | 10.08961 | 35401 ft | 448 kts | 131° |
| 2026-04-30 12:50 | 49.39757 | 10.15462 | 35401 ft | 448 kts | 131° |
| 2026-04-30 12:51 | 49.35184 | 10.21963 | 35422 ft | 448 kts | 131° |
| 2026-04-30 12:51 | 49.30607 | 10.28451 | 35425 ft | 448 kts | 131° |
| 2026-04-30 12:52 | 49.26011 | 10.34925 | 35423 ft | 449 kts | 131° |
| 2026-04-30 12:52 | 49.21463 | 10.41369 | 35425 ft | 448 kts | 130° |
| 2026-04-30 12:53 | 49.17009 | 10.48003 | 35427 ft | 447 kts | 129° |
| 2026-04-30 12:53 | 49.12594 | 10.54679 | 35433 ft | 447 kts | 129° |
| 2026-04-30 12:54 | 49.08141 | 10.61319 | 35437 ft | 447 kts | 130° |
| 2026-04-30 12:54 | 49.03665 | 10.67910 | 35441 ft | 448 kts | 130° |
| 2026-04-30 12:55 | 48.99178 | 10.74487 | 35450 ft | 448 kts | 130° |
| 2026-04-30 12:55 | 48.94694 | 10.81060 | 35444 ft | 447 kts | 130° |
| 2026-04-30 12:56 | 48.90215 | 10.87623 | 35426 ft | 447 kts | 130° |
| 2026-04-30 12:56 | 48.85730 | 10.94185 | 35416 ft | 447 kts | 130° |
| 2026-04-30 12:57 | 48.81267 | 11.00687 | 35411 ft | 448 kts | 130° |
| 2026-04-30 12:57 | 48.76767 | 11.07217 | 35409 ft | 447 kts | 130° |
| 2026-04-30 12:58 | 48.72270 | 11.13738 | 35408 ft | 447 kts | 130° |
| 2026-04-30 12:58 | 48.67763 | 11.20239 | 35406 ft | 448 kts | 130° |
| 2026-04-30 12:59 | 48.63267 | 11.26771 | 35406 ft | 447 kts | 128° |
| 2026-04-30 12:59 | 48.59059 | 11.33622 | 35406 ft | 444 kts | 125° |
| 2026-04-30 13:00 | 48.54996 | 11.40646 | 35401 ft | 444 kts | 125° |
| 2026-04-30 13:00 | 48.50895 | 11.47608 | 35403 ft | 445 kts | 126° |
| 2026-04-30 13:01 | 48.46719 | 11.54502 | 35403 ft | 445 kts | 126° |
| 2026-04-30 13:01 | 48.42555 | 11.61316 | 35407 ft | 445 kts | 126° |
| 2026-04-30 13:02 | 48.38366 | 11.68181 | 35406 ft | 445 kts | 126° |
| 2026-04-30 13:02 | 48.34181 | 11.75051 | 35406 ft | 445 kts | 126° |
| 2026-04-30 13:03 | 48.29989 | 11.81912 | 35401 ft | 446 kts | 126° |
| 2026-04-30 13:03 | 48.25792 | 11.88766 | 35403 ft | 446 kts | 126° |
| 2026-04-30 13:04 | 48.21585 | 11.95616 | 35407 ft | 446 kts | 126° |
| 2026-04-30 13:04 | 48.17372 | 12.02442 | 35399 ft | 447 kts | 126° |
| 2026-04-30 13:05 | 48.13151 | 12.09278 | 35396 ft | 447 kts | 126° |
| 2026-04-30 13:06 | 48.06812 | 12.19514 | 35391 ft | 448 kts | 126° |
| 2026-04-30 13:06 | 48.02592 | 12.26302 | 35391 ft | 448 kts | 127° |
| 2026-04-30 13:07 | 47.98342 | 12.33119 | 35383 ft | 449 kts | 127° |
| 2026-04-30 13:07 | 47.94082 | 12.39939 | 35377 ft | 449 kts | 127° |
| 2026-04-30 13:08 | 47.89808 | 12.46752 | 35375 ft | 450 kts | 127° |
| 2026-04-30 13:08 | 47.85526 | 12.53565 | 35372 ft | 451 kts | 127° |
| 2026-04-30 13:09 | 47.81234 | 12.60380 | 35373 ft | 452 kts | 127° |
| 2026-04-30 13:09 | 47.76921 | 12.67201 | 35370 ft | 452 kts | 127° |
| 2026-04-30 13:10 | 47.72603 | 12.74010 | 35369 ft | 453 kts | 127° |
| 2026-04-30 13:10 | 47.68271 | 12.80834 | 35371 ft | 454 kts | 128° |
| 2026-04-30 13:11 | 47.63850 | 12.87551 | 35365 ft | 456 kts | 129° |
| 2026-04-30 13:11 | 47.59328 | 12.94158 | 35356 ft | 457 kts | 130° |
| 2026-04-30 13:12 | 47.54785 | 13.00773 | 35347 ft | 458 kts | 130° |
| 2026-04-30 13:12 | 47.50251 | 13.07427 | 35338 ft | 459 kts | 130° |
| 2026-04-30 13:13 | 47.43484 | 13.17378 | 35321 ft | 460 kts | 130° |
| 2026-04-30 13:14 | 47.36649 | 13.27360 | 35321 ft | 461 kts | 130° |
| 2026-04-30 13:14 | 47.29045 | 13.36168 | 35912 ft | 471 kts | 145° |
| 2026-04-30 13:15 | 47.26219 | 13.38618 | 36187 ft | 471 kts | 146° |
| 2026-04-30 13:15 | 47.20557 | 13.43478 | 36676 ft | 472 kts | 146° |
| 2026-04-30 13:15 | 47.17711 | 13.45900 | 36896 ft | 473 kts | 147° |
| 2026-04-30 13:16 | 47.14859 | 13.48324 | 37120 ft | 473 kts | 147° |
| 2026-04-30 13:16 | 47.12966 | 13.49934 | 37239 ft | 474 kts | 147° |
| 2026-04-30 13:16 | 47.10114 | 13.52358 | 37283 ft | 474 kts | 147° |
| 2026-04-30 13:17 | 47.01536 | 13.59638 | 37288 ft | 476 kts | 147° |
| 2026-04-30 13:18 | 46.92948 | 13.66922 | 37279 ft | 476 kts | 147° |
| 2026-04-30 13:18 | 46.84319 | 13.74192 | 37298 ft | 478 kts | 147° |
| 2026-04-30 13:19 | 46.78560 | 13.79025 | 37317 ft | 478 kts | 147° |
| 2026-04-30 13:19 | 46.72802 | 13.83855 | 37330 ft | 477 kts | 147° |
| 2026-04-30 13:20 | 46.67042 | 13.88673 | 37341 ft | 477 kts | 148° |
| 2026-04-30 13:20 | 46.61283 | 13.93471 | 37347 ft | 477 kts | 148° |
| 2026-04-30 13:21 | 46.55566 | 13.98232 | 37345 ft | 477 kts | 148° |
| 2026-04-30 13:22 | 46.46927 | 14.05405 | 37344 ft | 477 kts | 148° |
| 2026-04-30 13:22 | 46.38274 | 14.12542 | 37343 ft | 477 kts | 148° |
| 2026-04-30 13:23 | 46.29621 | 14.19669 | 37346 ft | 477 kts | 149° |
| 2026-04-30 13:24 | 46.18068 | 14.29149 | 37348 ft | 477 kts | 149° |
| 2026-04-30 13:25 | 46.06500 | 14.38588 | 37346 ft | 477 kts | 149° |
| 2026-04-30 13:26 | 45.92058 | 14.50300 | 37346 ft | 479 kts | 149° |
| 2026-04-30 13:28 | 45.77525 | 14.62032 | 37348 ft | 480 kts | 150° |
| 2026-04-30 13:28 | 45.68776 | 14.69044 | 37345 ft | 481 kts | 150° |
| 2026-04-30 13:29 | 45.57087 | 14.78375 | 37347 ft | 482 kts | 150° |
| 2026-04-30 13:31 | 45.42870 | 14.90849 | 37336 ft | 482 kts | 141° |
| 2026-04-30 13:32 | 45.29580 | 15.05467 | 37342 ft | 484 kts | 142° |
| 2026-04-30 13:33 | 45.18909 | 15.17131 | 37346 ft | 484 kts | 142° |
| 2026-04-30 13:34 | 45.10905 | 15.25870 | 37347 ft | 485 kts | 142° |
| 2026-04-30 13:35 | 45.00199 | 15.37486 | 37341 ft | 485 kts | 142° |
| 2026-04-30 13:36 | 44.89472 | 15.49066 | 37337 ft | 486 kts | 142° |
| 2026-04-30 13:36 | 44.81413 | 15.57728 | 37327 ft | 486 kts | 143° |
| 2026-04-30 13:37 | 44.73341 | 15.66375 | 37321 ft | 486 kts | 143° |
| 2026-04-30 13:38 | 44.65298 | 15.74969 | 37318 ft | 487 kts | 143° |
| 2026-04-30 13:39 | 44.54503 | 15.86439 | 37311 ft | 487 kts | 143° |
| 2026-04-30 13:40 | 44.46405 | 15.95017 | 37304 ft | 486 kts | 143° |
| 2026-04-30 13:40 | 44.41003 | 16.00724 | 37295 ft | 487 kts | 144° |
| 2026-04-30 13:41 | 44.35596 | 16.06416 | 37286 ft | 487 kts | 144° |
| 2026-04-30 13:41 | 44.30180 | 16.12097 | 37280 ft | 487 kts | 144° |
| 2026-04-30 13:42 | 44.24756 | 16.17776 | 37276 ft | 488 kts | 144° |
| 2026-04-30 13:42 | 44.16622 | 16.26276 | 37267 ft | 487 kts | 144° |
| 2026-04-30 13:43 | 44.11187 | 16.31941 | 37268 ft | 487 kts | 144° |
| 2026-04-30 13:43 | 44.05762 | 16.37576 | 37264 ft | 487 kts | 145° |
| 2026-04-30 13:44 | 44.00366 | 16.43163 | 37254 ft | 486 kts | 145° |
| 2026-04-30 13:44 | 43.94936 | 16.48780 | 37254 ft | 487 kts | 145° |
| 2026-04-30 13:45 | 43.86784 | 16.57195 | 37250 ft | 487 kts | 145° |
| 2026-04-30 13:46 | 43.81349 | 16.62793 | 37244 ft | 487 kts | 145° |
| 2026-04-30 13:46 | 43.75904 | 16.68380 | 37233 ft | 487 kts | 146° |
| 2026-04-30 13:47 | 43.70454 | 16.73950 | 37224 ft | 487 kts | 146° |
| 2026-04-30 13:47 | 43.64997 | 16.79524 | 37214 ft | 488 kts | 146° |
| 2026-04-30 13:48 | 43.59541 | 16.85089 | 37204 ft | 488 kts | 146° |
| 2026-04-30 13:48 | 43.54076 | 16.90643 | 37196 ft | 488 kts | 146° |
| 2026-04-30 13:49 | 43.48639 | 16.96152 | 37186 ft | 488 kts | 146° |
| 2026-04-30 13:49 | 43.43162 | 17.01691 | 37176 ft | 489 kts | 146° |
| 2026-04-30 13:50 | 43.37683 | 17.07227 | 37173 ft | 489 kts | 146° |
| 2026-04-30 13:50 | 43.29441 | 17.15534 | 37153 ft | 490 kts | 147° |
| 2026-04-30 13:51 | 43.23938 | 17.21059 | 37152 ft | 490 kts | 147° |
| 2026-04-30 13:51 | 43.18431 | 17.26563 | 37151 ft | 491 kts | 147° |
| 2026-04-30 13:52 | 43.12902 | 17.32093 | 37147 ft | 491 kts | 147° |
| 2026-04-30 13:52 | 43.07374 | 17.37610 | 37159 ft | 492 kts | 147° |
| 2026-04-30 13:53 | 43.01841 | 17.43123 | 37150 ft | 492 kts | 147° |
| 2026-04-30 13:53 | 42.96339 | 17.48577 | 37145 ft | 492 kts | 147° |
| 2026-04-30 13:54 | 42.90788 | 17.54057 | 37145 ft | 492 kts | 147° |
| 2026-04-30 13:54 | 42.85355 | 17.59760 | 37141 ft | 494 kts | 144° |
| 2026-04-30 13:55 | 42.80068 | 17.65764 | 37136 ft | 495 kts | 143° |
| 2026-04-30 13:55 | 42.74787 | 17.71756 | 37131 ft | 494 kts | 144° |
| 2026-04-30 13:56 | 42.69446 | 17.77661 | 37122 ft | 494 kts | 144° |
| 2026-04-30 13:56 | 42.64080 | 17.83495 | 37118 ft | 494 kts | 145° |
| 2026-04-30 13:57 | 42.58712 | 17.89339 | 37118 ft | 495 kts | 145° |
| 2026-04-30 13:57 | 42.53352 | 17.95199 | 37117 ft | 495 kts | 145° |
| 2026-04-30 13:58 | 42.45348 | 18.03952 | 37115 ft | 495 kts | 145° |
| 2026-04-30 13:59 | 42.39974 | 18.09801 | 37119 ft | 495 kts | 145° |
| 2026-04-30 13:59 | 42.34593 | 18.15624 | 37123 ft | 495 kts | 146° |
| 2026-04-30 14:00 | 42.29203 | 18.21433 | 37128 ft | 496 kts | 146° |
| 2026-04-30 14:00 | 42.21123 | 18.30151 | 37132 ft | 496 kts | 146° |
| 2026-04-30 14:01 | 42.15730 | 18.35964 | 37129 ft | 496 kts | 146° |
| 2026-04-30 14:01 | 42.10331 | 18.41755 | 37130 ft | 496 kts | 146° |
| 2026-04-30 14:02 | 42.04922 | 18.47543 | 37127 ft | 496 kts | 146° |
| 2026-04-30 14:02 | 41.99512 | 18.53325 | 37125 ft | 497 kts | 146° |
| 2026-04-30 14:03 | 41.94136 | 18.59056 | 37116 ft | 497 kts | 146° |
| 2026-04-30 14:03 | 41.88722 | 18.64838 | 37116 ft | 497 kts | 146° |
| 2026-04-30 14:04 | 41.83306 | 18.70605 | 37120 ft | 497 kts | 146° |
| 2026-04-30 14:04 | 41.77872 | 18.76352 | 37123 ft | 497 kts | 147° |
| 2026-04-30 14:05 | 41.72438 | 18.82074 | 37126 ft | 497 kts | 147° |
| 2026-04-30 14:05 | 41.67001 | 18.87801 | 37120 ft | 497 kts | 147° |
| 2026-04-30 14:06 | 41.58857 | 18.96365 | 37119 ft | 497 kts | 147° |
| 2026-04-30 14:07 | 41.50709 | 19.04903 | 37109 ft | 496 kts | 147° |
| 2026-04-30 14:08 | 41.43050 | 19.11363 | 37103 ft | 482 kts | 165° |
| 2026-04-30 14:08 | 41.32630 | 19.16445 | 37087 ft | 480 kts | 166° |
| 2026-04-30 14:09 | 41.27381 | 19.18995 | 37091 ft | 479 kts | 166° |
| 2026-04-30 14:10 | 41.17985 | 19.23564 | 37082 ft | 479 kts | 166° |
| 2026-04-30 14:10 | 41.11734 | 19.26598 | 37082 ft | 478 kts | 166° |
| 2026-04-30 14:11 | 41.05528 | 19.29610 | 37080 ft | 478 kts | 166° |
| 2026-04-30 14:11 | 40.99289 | 19.32626 | 37078 ft | 477 kts | 166° |
| 2026-04-30 14:12 | 40.93062 | 19.35627 | 37075 ft | 476 kts | 166° |
| 2026-04-30 14:12 | 40.86833 | 19.38628 | 37077 ft | 476 kts | 166° |
| 2026-04-30 14:13 | 40.80617 | 19.41615 | 37076 ft | 475 kts | 166° |
| 2026-04-30 14:13 | 40.74409 | 19.44586 | 37069 ft | 474 kts | 166° |
| 2026-04-30 14:14 | 40.68207 | 19.47541 | 37066 ft | 474 kts | 166° |
| 2026-04-30 14:14 | 40.62007 | 19.50495 | 37064 ft | 474 kts | 166° |
| 2026-04-30 14:15 | 40.55808 | 19.53452 | 37066 ft | 473 kts | 166° |
| 2026-04-30 14:15 | 40.49616 | 19.56397 | 37065 ft | 473 kts | 166° |
| 2026-04-30 14:16 | 40.43428 | 19.59332 | 37063 ft | 473 kts | 166° |
| 2026-04-30 14:16 | 40.37234 | 19.62267 | 37061 ft | 473 kts | 166° |
| 2026-04-30 14:17 | 40.31075 | 19.65174 | 37060 ft | 473 kts | 166° |
| 2026-04-30 14:17 | 40.24875 | 19.68094 | 37059 ft | 473 kts | 165° |
| 2026-04-30 14:18 | 40.18668 | 19.71023 | 37059 ft | 474 kts | 165° |
| 2026-04-30 14:18 | 40.09369 | 19.75379 | 37053 ft | 474 kts | 165° |
| 2026-04-30 14:19 | 40.00054 | 19.79738 | 37063 ft | 474 kts | 165° |
| 2026-04-30 14:20 | 39.93852 | 19.82638 | 37063 ft | 474 kts | 165° |
| 2026-04-30 14:20 | 39.84569 | 19.87079 | 37058 ft | 474 kts | 163° |
| 2026-04-30 14:21 | 39.78427 | 19.90216 | 37065 ft | 474 kts | 163° |
| 2026-04-30 14:22 | 39.69262 | 19.94878 | 37065 ft | 473 kts | 163° |
| 2026-04-30 14:22 | 39.62946 | 19.96603 | 37064 ft | 461 kts | 179° |
| 2026-04-30 14:22 | 39.59758 | 19.97053 | 37063 ft | 461 kts | 179° |
| 2026-04-30 14:23 | 39.47027 | 19.98838 | 37057 ft | 460 kts | 179° |
| 2026-04-30 14:24 | 39.37458 | 20.00140 | 37047 ft | 461 kts | 179° |
| 2026-04-30 14:25 | 39.24682 | 20.01909 | 37042 ft | 462 kts | 179° |
| 2026-04-30 14:26 | 39.18310 | 20.02792 | 36094 ft | 460 kts | 179° |
| 2026-04-30 14:26 | 39.15133 | 20.03223 | 35468 ft | 459 kts | 179° |
| 2026-04-30 14:26 | 39.08828 | 20.04072 | 34248 ft | 458 kts | 178° |
| 2026-04-30 14:27 | 39.05660 | 20.04500 | 33553 ft | 457 kts | 178° |
| 2026-04-30 14:27 | 39.02506 | 20.04928 | 33128 ft | 456 kts | 178° |
| 2026-04-30 14:27 | 38.99342 | 20.05359 | 33012 ft | 458 kts | 178° |
| 2026-04-30 14:28 | 38.89790 | 20.06651 | 33047 ft | 461 kts | 178° |
| 2026-04-30 14:28 | 38.83410 | 20.07515 | 33048 ft | 461 kts | 178° |
| 2026-04-30 14:29 | 38.71726 | 20.09100 | 33045 ft | 461 kts | 178° |
| 2026-04-30 14:30 | 38.61136 | 20.11021 | 32581 ft | 466 kts | 162° |
| 2026-04-30 14:31 | 38.55257 | 20.14690 | 30892 ft | 473 kts | 156° |
| 2026-04-30 14:31 | 38.49377 | 20.18539 | 29036 ft | 477 kts | 156° |
| 2026-04-30 14:31 | 38.46417 | 20.20462 | 27993 ft | 479 kts | 156° |
| 2026-04-30 14:32 | 38.40522 | 20.24254 | 26350 ft | 473 kts | 156° |
| 2026-04-30 14:32 | 38.37589 | 20.26131 | 25642 ft | 469 kts | 156° |
| 2026-04-30 14:32 | 38.34686 | 20.27988 | 24946 ft | 465 kts | 156° |
| 2026-04-30 14:33 | 38.31808 | 20.29826 | 24287 ft | 461 kts | 156° |
| 2026-04-30 14:33 | 38.26123 | 20.33464 | 22884 ft | 453 kts | 156° |
| 2026-04-30 14:33 | 38.23322 | 20.35255 | 22115 ft | 445 kts | 156° |
| 2026-04-30 14:34 | 38.20578 | 20.37011 | 20957 ft | 438 kts | 156° |
| 2026-04-30 14:34 | 38.17873 | 20.38742 | 19849 ft | 432 kts | 156° |
| 2026-04-30 14:34 | 38.15211 | 20.40444 | 18830 ft | 426 kts | 156° |
| 2026-04-30 14:34 | 38.12579 | 20.42123 | 17781 ft | 420 kts | 156° |
| 2026-04-30 14:35 | 38.07441 | 20.45395 | 15711 ft | 406 kts | 156° |
| 2026-04-30 14:35 | 38.04931 | 20.46989 | 14700 ft | 399 kts | 157° |
| 2026-04-30 14:35 | 38.02453 | 20.48559 | 13924 ft | 398 kts | 157° |
| 2026-04-30 14:36 | 37.99993 | 20.50118 | 13333 ft | 393 kts | 157° |
| 2026-04-30 14:36 | 37.97560 | 20.51658 | 12717 ft | 389 kts | 157° |
| 2026-04-30 14:36 | 37.95154 | 20.53180 | 12146 ft | 385 kts | 157° |
| 2026-04-30 14:36 | 37.92770 | 20.54689 | 11554 ft | 381 kts | 156° |
| 2026-04-30 14:37 | 37.90409 | 20.56182 | 10977 ft | 377 kts | 156° |
| 2026-04-30 14:37 | 37.88072 | 20.57657 | 10444 ft | 373 kts | 156° |
| 2026-04-30 14:37 | 37.85810 | 20.59089 | 10290 ft | 352 kts | 156° |
| 2026-04-30 14:37 | 37.83713 | 20.60423 | 10166 ft | 324 kts | 157° |
| 2026-04-30 14:38 | 37.81730 | 20.61677 | 10052 ft | 312 kts | 157° |
| 2026-04-30 14:38 | 37.79816 | 20.62880 | 9902 ft | 303 kts | 157° |
| 2026-04-30 14:38 | 37.77940 | 20.64058 | 9620 ft | 299 kts | 157° |
| 2026-04-30 14:38 | 37.76082 | 20.65222 | 9292 ft | 297 kts | 157° |
| 2026-04-30 14:39 | 37.74238 | 20.66381 | 8961 ft | 295 kts | 157° |
| 2026-04-30 14:39 | 37.72407 | 20.67531 | 8629 ft | 293 kts | 157° |
| 2026-04-30 14:39 | 37.70608 | 20.68662 | 8296 ft | 292 kts | 156° |
| 2026-04-30 14:40 | 37.66989 | 20.70938 | 7635 ft | 289 kts | 156° |
| 2026-04-30 14:40 | 37.65193 | 20.72065 | 7323 ft | 288 kts | 156° |
| 2026-04-30 14:40 | 37.63405 | 20.73186 | 6999 ft | 286 kts | 156° |
| 2026-04-30 14:40 | 37.61623 | 20.74300 | 6687 ft | 285 kts | 156° |
| 2026-04-30 14:41 | 37.59854 | 20.75406 | 6489 ft | 279 kts | 156° |
| 2026-04-30 14:41 | 37.58145 | 20.76479 | 6362 ft | 271 kts | 156° |
| 2026-04-30 14:41 | 37.56483 | 20.77521 | 6239 ft | 262 kts | 156° |
| 2026-04-30 14:41 | 37.54878 | 20.78527 | 6105 ft | 254 kts | 156° |
| 2026-04-30 14:42 | 37.53374 | 20.79658 | 5878 ft | 251 kts | 138° |
| 2026-04-30 14:42 | 37.52434 | 20.81480 | 5561 ft | 251 kts | 106° |
| 2026-04-30 14:42 | 37.52299 | 20.83650 | 5228 ft | 249 kts | 85° |
| 2026-04-30 14:42 | 37.52238 | 20.85785 | 4896 ft | 240 kts | 95° |
| 2026-04-30 14:43 | 37.52074 | 20.87861 | 4466 ft | 237 kts | 95° |
| 2026-04-30 14:43 | 37.52066 | 20.89918 | 4027 ft | 233 kts | 77° |
| 2026-04-30 14:43 | 37.52633 | 20.91799 | 3782 ft | 226 kts | 56° |
| 2026-04-30 14:43 | 37.53610 | 20.93276 | 3573 ft | 216 kts | 37° |
| 2026-04-30 14:44 | 37.54866 | 20.94263 | 3321 ft | 211 kts | 18° |
| 2026-04-30 14:44 | 37.56266 | 20.94696 | 3081 ft | 205 kts | 0° |
| 2026-04-30 14:44 | 37.57674 | 20.94575 | 3001 ft | 202 kts | 344° |
| 2026-04-30 14:44 | 37.59027 | 20.94088 | 3011 ft | 202 kts | 341° |
| 2026-04-30 14:45 | 37.60360 | 20.93602 | 2799 ft | 199 kts | 341° |
| 2026-04-30 14:45 | 37.61681 | 20.93124 | 2569 ft | 195 kts | 342° |
| 2026-04-30 14:45 | 37.62965 | 20.92657 | 2294 ft | 190 kts | 342° |
| 2026-04-30 14:45 | 37.64197 | 20.92212 | 2034 ft | 183 kts | 343° |
| 2026-04-30 14:46 | 37.65379 | 20.91802 | 1803 ft | 170 kts | 342° |
| 2026-04-30 14:46 | 37.66479 | 20.91424 | 1581 ft | 158 kts | 342° |
| 2026-04-30 14:46 | 37.67487 | 20.91079 | 1412 ft | 143 kts | 341° |
| 2026-04-30 14:46 | 37.68114 | 20.90864 | 1278 ft | 139 kts | 342° |
| 2026-04-30 14:47 | 37.69346 | 20.90482 | 989 ft | 135 kts | 346° |
| 2026-04-30 14:47 | 37.70272 | 20.90230 | 846 ft | 137 kts | 343° |
| 2026-04-30 14:47 | 37.71181 | 20.89894 | 727 ft | 136 kts | 342° |
| 2026-04-30 14:47 | 37.72088 | 20.89538 | 508 ft | 138 kts | 343° |
| 2026-04-30 14:48 | 37.73015 | 20.89198 | 336 ft | 138 kts | 343° |
| 2026-04-30 14:48 | 37.73942 | 20.88852 | 150 ft | 140 kts | 344° |
| 2026-04-30 14:48 | 37.74866 | 20.88511 | 24 ft | 131 kts | 343° |
| 2026-04-30 14:48 | 37.75543 | 20.88258 | 22 ft | 60 kts | 343° |
| 2026-04-30 14:49 | 37.75742 | 20.88183 | 24 ft | 15 kts | 345° |
| 2026-04-30 14:49 | 37.75824 | 20.88153 | 23 ft | 8 kts | 341° |
| 2026-04-30 14:49 | 37.75861 | 20.88113 | 23 ft | 6 kts | 324° |
| 2026-04-30 14:49 | 37.75881 | 20.88134 | 22 ft | 5 kts | 112° |
| 2026-04-30 14:50 | 37.75780 | 20.88168 | 25 ft | 12 kts | 163° |
| 2026-04-30 14:50 | 37.75675 | 20.88209 | 24 ft | 19 kts | 164° |
| 2026-04-30 14:51 | 37.75478 | 20.88340 | 22 ft | 11 kts | 101° |
| 2026-04-30 14:51 | 37.75441 | 20.88414 | 22 ft | 12 kts | 153° |
| 2026-04-30 14:51 | 37.75256 | 20.88488 | 21 ft | 13 kts | 162° |
| 2026-04-30 14:52 | 37.75214 | 20.88504 | 22 ft | 3 kts | 163° |
| 2026-04-30 14:52 | 37.75205 | 20.88555 | 22 ft | 6 kts | 73° |
| 2026-04-30 14:52 | 37.75214 | 20.88591 | 24 ft | 3 kts | 71° |
| 2026-04-30 14:53 | 37.75216 | 20.88598 | 22 ft | 0 kts | 72° |
| 2026-04-30 15:03 | 37.73793 | 20.88906 | 179 ft | 140 kts | 343° |
| 2026-04-30 15:03 | 37.75196 | 20.88385 | 19 ft | 113 kts | 344° |
| 2026-04-30 15:04 | 37.74824 | 20.88527 | 25 ft | 132 kts | 343° |
| 2026-04-30 15:04 | 37.74959 | 20.88475 | 21 ft | 128 kts | 343° |
| 2026-04-30 15:05 | 37.75704 | 20.88196 | 24 ft | 18 kts | 343° |